sensor_id;sensor_type;location;lat;lon;timestamp;P1;durP1;ratioP1;P2;durP2;ratioP2
80297;SDS011;69599;52.622;9.230;2023-05-07T00:01:02;14.77;;;9.98;;
80297;SDS011;69599;52.622;9.230;2023-05-07T00:03:27;16.63;;;10.50;;
80297;SDS011;69599;52.622;9.230;2023-05-07T00:05:53;17.48;;;10.57;;
80297;SDS011;69599;52.622;9.230;2023-05-07T00:08:19;18.05;;;11.90;;
80297;SDS011;69599;52.622;9.230;2023-05-07T00:10:45;16.40;;;10.70;;
80297;SDS011;69599;52.622;9.230;2023-05-07T00:13:11;18.17;;;10.88;;
80297;SDS011;69599;52.622;9.230;2023-05-07T00:15:36;18.30;;;11.70;;
80297;SDS011;69599;52.622;9.230;2023-05-07T00:18:02;20.13;;;10.88;;
80297;SDS011;69599;52.622;9.230;2023-05-07T00:20:27;16.90;;;11.02;;
80297;SDS011;69599;52.622;9.230;2023-05-07T00:22:53;17.10;;;11.00;;
80297;SDS011;69599;52.622;9.230;2023-05-07T00:25:18;13.77;;;10.43;;
80297;SDS011;69599;52.622;9.230;2023-05-07T00:27:45;16.45;;;10.68;;
80297;SDS011;69599;52.622;9.230;2023-05-07T00:30:10;16.98;;;11.18;;
80297;SDS011;69599;52.622;9.230;2023-05-07T00:32:36;17.25;;;10.77;;
80297;SDS011;69599;52.622;9.230;2023-05-07T00:35:02;21.80;;;11.98;;
80297;SDS011;69599;52.622;9.230;2023-05-07T00:37:28;16.70;;;9.90;;
80297;SDS011;69599;52.622;9.230;2023-05-07T00:39:53;18.98;;;10.93;;
80297;SDS011;69599;52.622;9.230;2023-05-07T00:42:19;18.40;;;11.30;;
80297;SDS011;69599;52.622;9.230;2023-05-07T00:44:44;19.98;;;11.18;;
80297;SDS011;69599;52.622;9.230;2023-05-07T00:47:10;19.77;;;11.35;;
80297;SDS011;69599;52.622;9.230;2023-05-07T00:49:39;17.48;;;11.73;;
80297;SDS011;69599;52.622;9.230;2023-05-07T00:52:07;18.27;;;11.80;;
80297;SDS011;69599;52.622;9.230;2023-05-07T00:54:33;19.92;;;12.52;;
80297;SDS011;69599;52.622;9.230;2023-05-07T00:56:59;18.40;;;11.27;;
80297;SDS011;69599;52.622;9.230;2023-05-07T00:59:25;20.38;;;11.88;;
80297;SDS011;69599;52.622;9.230;2023-05-07T01:01:51;19.42;;;11.98;;
80297;SDS011;69599;52.622;9.230;2023-05-07T01:04:17;19.67;;;11.43;;
80297;SDS011;69599;52.622;9.230;2023-05-07T01:06:42;17.55;;;12.25;;
80297;SDS011;69599;52.622;9.230;2023-05-07T01:09:09;19.55;;;12.02;;
80297;SDS011;69599;52.622;9.230;2023-05-07T01:11:35;17.90;;;11.02;;
80297;SDS011;69599;52.622;9.230;2023-05-07T01:14:00;18.90;;;11.00;;
80297;SDS011;69599;52.622;9.230;2023-05-07T01:16:26;20.48;;;11.93;;
80297;SDS011;69599;52.622;9.230;2023-05-07T01:18:52;21.33;;;11.68;;
80297;SDS011;69599;52.622;9.230;2023-05-07T01:21:18;17.98;;;11.10;;
80297;SDS011;69599;52.622;9.230;2023-05-07T01:23:44;19.58;;;11.77;;
80297;SDS011;69599;52.622;9.230;2023-05-07T01:26:10;19.00;;;11.05;;
80297;SDS011;69599;52.622;9.230;2023-05-07T01:28:35;19.05;;;11.18;;
80297;SDS011;69599;52.622;9.230;2023-05-07T01:31:02;18.27;;;10.68;;
80297;SDS011;69599;52.622;9.230;2023-05-07T01:33:29;17.75;;;10.50;;
80297;SDS011;69599;52.622;9.230;2023-05-07T01:35:57;17.25;;;11.20;;
80297;SDS011;69599;52.622;9.230;2023-05-07T01:38:23;18.17;;;11.00;;
80297;SDS011;69599;52.622;9.230;2023-05-07T01:40:48;14.90;;;9.82;;
80297;SDS011;69599;52.622;9.230;2023-05-07T01:43:14;20.38;;;11.30;;
80297;SDS011;69599;52.622;9.230;2023-05-07T01:45:40;22.70;;;11.77;;
80297;SDS011;69599;52.622;9.230;2023-05-07T01:48:06;20.88;;;11.23;;
80297;SDS011;69599;52.622;9.230;2023-05-07T01:50:32;19.33;;;10.35;;
80297;SDS011;69599;52.622;9.230;2023-05-07T01:52:58;20.17;;;10.90;;
80297;SDS011;69599;52.622;9.230;2023-05-07T01:55:23;19.20;;;10.93;;
80297;SDS011;69599;52.622;9.230;2023-05-07T01:57:49;19.55;;;11.05;;
80297;SDS011;69599;52.622;9.230;2023-05-07T02:00:14;19.23;;;11.48;;
80297;SDS011;69599;52.622;9.230;2023-05-07T02:02:40;19.83;;;10.98;;
80297;SDS011;69599;52.622;9.230;2023-05-07T02:05:05;19.40;;;11.20;;
80297;SDS011;69599;52.622;9.230;2023-05-07T02:07:31;22.73;;;11.52;;
80297;SDS011;69599;52.622;9.230;2023-05-07T02:09:56;20.75;;;12.43;;
80297;SDS011;69599;52.622;9.230;2023-05-07T02:12:22;19.80;;;11.35;;
80297;SDS011;69599;52.622;9.230;2023-05-07T02:14:47;21.25;;;10.77;;
80297;SDS011;69599;52.622;9.230;2023-05-07T02:17:13;21.88;;;11.48;;
80297;SDS011;69599;52.622;9.230;2023-05-07T02:19:38;20.95;;;10.85;;
80297;SDS011;69599;52.622;9.230;2023-05-07T02:22:04;17.77;;;11.13;;
80297;SDS011;69599;52.622;9.230;2023-05-07T02:24:30;21.30;;;11.57;;
80297;SDS011;69599;52.622;9.230;2023-05-07T02:26:55;19.10;;;10.15;;
80297;SDS011;69599;52.622;9.230;2023-05-07T02:29:21;21.05;;;11.82;;
80297;SDS011;69599;52.622;9.230;2023-05-07T02:31:46;22.27;;;11.55;;
80297;SDS011;69599;52.622;9.230;2023-05-07T02:34:15;21.63;;;11.82;;
80297;SDS011;69599;52.622;9.230;2023-05-07T02:36:41;21.02;;;10.68;;
80297;SDS011;69599;52.622;9.230;2023-05-07T02:39:06;23.08;;;12.25;;
80297;SDS011;69599;52.622;9.230;2023-05-07T02:41:32;21.95;;;11.32;;
80297;SDS011;69599;52.622;9.230;2023-05-07T02:43:57;20.23;;;11.18;;
80297;SDS011;69599;52.622;9.230;2023-05-07T02:46:23;32.38;;;12.50;;
80297;SDS011;69599;52.622;9.230;2023-05-07T02:48:48;20.23;;;11.27;;
80297;SDS011;69599;52.622;9.230;2023-05-07T02:51:13;24.08;;;11.75;;
80297;SDS011;69599;52.622;9.230;2023-05-07T02:53:39;20.38;;;11.80;;
80297;SDS011;69599;52.622;9.230;2023-05-07T02:56:04;22.50;;;12.02;;
80297;SDS011;69599;52.622;9.230;2023-05-07T02:58:31;23.20;;;13.00;;
80297;SDS011;69599;52.622;9.230;2023-05-07T03:00:56;21.27;;;12.15;;
80297;SDS011;69599;52.622;9.230;2023-05-07T03:03:22;21.52;;;12.32;;
80297;SDS011;69599;52.622;9.230;2023-05-07T03:05:47;19.10;;;11.13;;
80297;SDS011;69599;52.622;9.230;2023-05-07T03:08:13;21.70;;;11.48;;
80297;SDS011;69599;52.622;9.230;2023-05-07T03:10:38;25.67;;;12.70;;
80297;SDS011;69599;52.622;9.230;2023-05-07T03:13:04;26.05;;;13.50;;
80297;SDS011;69599;52.622;9.230;2023-05-07T03:15:30;24.85;;;12.23;;
80297;SDS011;69599;52.622;9.230;2023-05-07T03:17:55;25.40;;;12.48;;
80297;SDS011;69599;52.622;9.230;2023-05-07T03:20:20;22.55;;;12.45;;
80297;SDS011;69599;52.622;9.230;2023-05-07T03:22:46;25.40;;;14.98;;
80297;SDS011;69599;52.622;9.230;2023-05-07T03:25:11;25.70;;;13.55;;
80297;SDS011;69599;52.622;9.230;2023-05-07T03:27:37;26.67;;;13.40;;
80297;SDS011;69599;52.622;9.230;2023-05-07T03:30:03;26.50;;;13.50;;
80297;SDS011;69599;52.622;9.230;2023-05-07T03:32:29;28.77;;;14.70;;
80297;SDS011;69599;52.622;9.230;2023-05-07T03:34:54;28.25;;;15.25;;
80297;SDS011;69599;52.622;9.230;2023-05-07T03:37:20;22.48;;;12.10;;
80297;SDS011;69599;52.622;9.230;2023-05-07T03:39:46;25.40;;;13.32;;
80297;SDS011;69599;52.622;9.230;2023-05-07T03:42:13;24.80;;;13.52;;
80297;SDS011;69599;52.622;9.230;2023-05-07T03:44:38;21.40;;;12.23;;
80297;SDS011;69599;52.622;9.230;2023-05-07T03:47:04;20.73;;;12.40;;
80297;SDS011;69599;52.622;9.230;2023-05-07T03:49:29;22.88;;;11.52;;
80297;SDS011;69599;52.622;9.230;2023-05-07T03:51:55;22.77;;;11.30;;
80297;SDS011;69599;52.622;9.230;2023-05-07T03:54:20;19.33;;;10.13;;
80297;SDS011;69599;52.622;9.230;2023-05-07T03:56:46;20.05;;;11.20;;
80297;SDS011;69599;52.622;9.230;2023-05-07T03:59:12;24.00;;;11.77;;
80297;SDS011;69599;52.622;9.230;2023-05-07T04:01:38;21.33;;;10.30;;
80297;SDS011;69599;52.622;9.230;2023-05-07T04:04:03;18.83;;;10.02;;
80297;SDS011;69599;52.622;9.230;2023-05-07T04:06:29;17.20;;;9.25;;
80297;SDS011;69599;52.622;9.230;2023-05-07T04:08:54;18.38;;;9.82;;
80297;SDS011;69599;52.622;9.230;2023-05-07T04:11:20;16.55;;;8.70;;
80297;SDS011;69599;52.622;9.230;2023-05-07T04:13:45;22.63;;;10.32;;
80297;SDS011;69599;52.622;9.230;2023-05-07T04:16:11;17.52;;;8.57;;
80297;SDS011;69599;52.622;9.230;2023-05-07T04:18:36;20.25;;;10.45;;
80297;SDS011;69599;52.622;9.230;2023-05-07T04:21:01;15.80;;;8.77;;
80297;SDS011;69599;52.622;9.230;2023-05-07T04:23:27;17.30;;;9.75;;
80297;SDS011;69599;52.622;9.230;2023-05-07T04:25:52;17.15;;;9.27;;
80297;SDS011;69599;52.622;9.230;2023-05-07T04:28:19;17.42;;;9.60;;
80297;SDS011;69599;52.622;9.230;2023-05-07T04:30:45;17.42;;;9.23;;
80297;SDS011;69599;52.622;9.230;2023-05-07T04:33:11;15.25;;;9.05;;
80297;SDS011;69599;52.622;9.230;2023-05-07T04:35:36;17.15;;;9.32;;
80297;SDS011;69599;52.622;9.230;2023-05-07T04:38:02;15.77;;;8.95;;
80297;SDS011;69599;52.622;9.230;2023-05-07T04:40:27;12.93;;;7.72;;
80297;SDS011;69599;52.622;9.230;2023-05-07T04:42:53;14.82;;;8.32;;
80297;SDS011;69599;52.622;9.230;2023-05-07T04:45:18;14.88;;;9.13;;
80297;SDS011;69599;52.622;9.230;2023-05-07T04:47:44;12.15;;;7.22;;
80297;SDS011;69599;52.622;9.230;2023-05-07T04:50:09;14.13;;;8.63;;
80297;SDS011;69599;52.622;9.230;2023-05-07T04:52:35;16.40;;;8.20;;
80297;SDS011;69599;52.622;9.230;2023-05-07T04:55:01;14.95;;;8.10;;
80297;SDS011;69599;52.622;9.230;2023-05-07T04:57:26;12.00;;;6.88;;
80297;SDS011;69599;52.622;9.230;2023-05-07T04:59:52;12.75;;;7.57;;
80297;SDS011;69599;52.622;9.230;2023-05-07T05:02:18;12.77;;;7.90;;
80297;SDS011;69599;52.622;9.230;2023-05-07T05:04:44;12.57;;;7.93;;
80297;SDS011;69599;52.622;9.230;2023-05-07T05:07:09;12.60;;;7.70;;
80297;SDS011;69599;52.622;9.230;2023-05-07T05:09:35;13.25;;;7.95;;
80297;SDS011;69599;52.622;9.230;2023-05-07T05:12:00;12.85;;;8.07;;
80297;SDS011;69599;52.622;9.230;2023-05-07T05:14:25;13.07;;;7.53;;
80297;SDS011;69599;52.622;9.230;2023-05-07T05:16:51;13.63;;;7.90;;
80297;SDS011;69599;52.622;9.230;2023-05-07T05:19:16;13.43;;;7.10;;
80297;SDS011;69599;52.622;9.230;2023-05-07T05:21:42;12.52;;;7.53;;
80297;SDS011;69599;52.622;9.230;2023-05-07T05:24:07;13.70;;;7.97;;
80297;SDS011;69599;52.622;9.230;2023-05-07T05:26:32;15.38;;;8.25;;
80297;SDS011;69599;52.622;9.230;2023-05-07T05:28:58;14.18;;;8.40;;
80297;SDS011;69599;52.622;9.230;2023-05-07T05:31:23;13.30;;;7.97;;
80297;SDS011;69599;52.622;9.230;2023-05-07T05:33:49;14.48;;;8.32;;
80297;SDS011;69599;52.622;9.230;2023-05-07T05:36:14;13.35;;;7.78;;
80297;SDS011;69599;52.622;9.230;2023-05-07T05:38:40;12.00;;;7.03;;
80297;SDS011;69599;52.622;9.230;2023-05-07T05:41:05;10.52;;;6.93;;
80297;SDS011;69599;52.622;9.230;2023-05-07T05:43:31;15.07;;;7.43;;
80297;SDS011;69599;52.622;9.230;2023-05-07T05:45:56;16.05;;;7.43;;
80297;SDS011;69599;52.622;9.230;2023-05-07T05:48:22;13.02;;;7.50;;
80297;SDS011;69599;52.622;9.230;2023-05-07T05:50:48;12.77;;;7.20;;
80297;SDS011;69599;52.622;9.230;2023-05-07T05:53:14;12.70;;;7.13;;
80297;SDS011;69599;52.622;9.230;2023-05-07T05:55:39;15.18;;;8.15;;
80297;SDS011;69599;52.622;9.230;2023-05-07T05:58:04;13.48;;;7.75;;
80297;SDS011;69599;52.622;9.230;2023-05-07T06:00:30;12.60;;;6.53;;
80297;SDS011;69599;52.622;9.230;2023-05-07T06:02:56;13.80;;;7.88;;
80297;SDS011;69599;52.622;9.230;2023-05-07T06:05:21;13.77;;;7.22;;
80297;SDS011;69599;52.622;9.230;2023-05-07T06:07:46;11.35;;;6.88;;
80297;SDS011;69599;52.622;9.230;2023-05-07T06:10:12;14.55;;;8.07;;
80297;SDS011;69599;52.622;9.230;2023-05-07T06:12:37;14.27;;;7.97;;
80297;SDS011;69599;52.622;9.230;2023-05-07T06:15:03;15.32;;;8.10;;
80297;SDS011;69599;52.622;9.230;2023-05-07T06:17:29;15.50;;;8.63;;
80297;SDS011;69599;52.622;9.230;2023-05-07T06:19:54;12.85;;;7.68;;
80297;SDS011;69599;52.622;9.230;2023-05-07T06:22:20;12.32;;;8.00;;
80297;SDS011;69599;52.622;9.230;2023-05-07T06:24:45;12.73;;;7.13;;
80297;SDS011;69599;52.622;9.230;2023-05-07T06:27:11;12.35;;;8.45;;
80297;SDS011;69599;52.622;9.230;2023-05-07T06:29:36;13.00;;;7.43;;
80297;SDS011;69599;52.622;9.230;2023-05-07T06:32:11;13.02;;;7.95;;
80297;SDS011;69599;52.622;9.230;2023-05-07T06:34:38;12.70;;;7.35;;
80297;SDS011;69599;52.622;9.230;2023-05-07T06:37:04;14.60;;;9.07;;
80297;SDS011;69599;52.622;9.230;2023-05-07T06:39:30;13.38;;;7.93;;
80297;SDS011;69599;52.622;9.230;2023-05-07T06:41:55;11.38;;;7.78;;
80297;SDS011;69599;52.622;9.230;2023-05-07T06:44:21;14.65;;;7.68;;
80297;SDS011;69599;52.622;9.230;2023-05-07T06:46:46;12.90;;;7.75;;
80297;SDS011;69599;52.622;9.230;2023-05-07T06:49:12;10.70;;;6.65;;
80297;SDS011;69599;52.622;9.230;2023-05-07T06:51:38;11.60;;;6.85;;
80297;SDS011;69599;52.622;9.230;2023-05-07T06:54:03;11.57;;;6.97;;
80297;SDS011;69599;52.622;9.230;2023-05-07T06:56:29;12.27;;;7.13;;
80297;SDS011;69599;52.622;9.230;2023-05-07T06:58:55;11.18;;;7.30;;
80297;SDS011;69599;52.622;9.230;2023-05-07T07:01:21;10.18;;;6.60;;
80297;SDS011;69599;52.622;9.230;2023-05-07T07:03:46;11.52;;;7.15;;
80297;SDS011;69599;52.622;9.230;2023-05-07T07:06:12;10.63;;;6.40;;
80297;SDS011;69599;52.622;9.230;2023-05-07T07:08:37;11.00;;;6.72;;
80297;SDS011;69599;52.622;9.230;2023-05-07T07:11:04;9.95;;;5.90;;
80297;SDS011;69599;52.622;9.230;2023-05-07T07:13:30;9.25;;;6.43;;
80297;SDS011;69599;52.622;9.230;2023-05-07T07:15:56;9.98;;;6.78;;
80297;SDS011;69599;52.622;9.230;2023-05-07T07:18:21;10.05;;;6.50;;
80297;SDS011;69599;52.622;9.230;2023-05-07T07:20:47;10.95;;;6.32;;
80297;SDS011;69599;52.622;9.230;2023-05-07T07:23:12;8.40;;;5.60;;
80297;SDS011;69599;52.622;9.230;2023-05-07T07:25:38;8.73;;;6.45;;
80297;SDS011;69599;52.622;9.230;2023-05-07T07:28:03;8.63;;;6.15;;
80297;SDS011;69599;52.622;9.230;2023-05-07T07:30:28;8.65;;;6.10;;
80297;SDS011;69599;52.622;9.230;2023-05-07T07:32:54;8.80;;;5.70;;
80297;SDS011;69599;52.622;9.230;2023-05-07T07:35:22;9.93;;;5.85;;
80297;SDS011;69599;52.622;9.230;2023-05-07T07:37:48;9.20;;;5.50;;
80297;SDS011;69599;52.622;9.230;2023-05-07T07:40:15;9.57;;;6.03;;
80297;SDS011;69599;52.622;9.230;2023-05-07T07:42:40;9.07;;;6.07;;
80297;SDS011;69599;52.622;9.230;2023-05-07T07:45:06;9.10;;;6.05;;
80297;SDS011;69599;52.622;9.230;2023-05-07T07:47:32;7.82;;;5.68;;
80297;SDS011;69599;52.622;9.230;2023-05-07T07:49:57;8.77;;;6.10;;
80297;SDS011;69599;52.622;9.230;2023-05-07T07:52:23;7.35;;;4.93;;
80297;SDS011;69599;52.622;9.230;2023-05-07T07:54:48;7.47;;;4.90;;
80297;SDS011;69599;52.622;9.230;2023-05-07T07:57:14;7.57;;;5.68;;
80297;SDS011;69599;52.622;9.230;2023-05-07T07:59:39;7.47;;;6.22;;
80297;SDS011;69599;52.622;9.230;2023-05-07T08:02:05;7.45;;;6.13;;
80297;SDS011;69599;52.622;9.230;2023-05-07T08:04:30;8.30;;;6.10;;
80297;SDS011;69599;52.622;9.230;2023-05-07T08:06:58;7.63;;;5.40;;
80297;SDS011;69599;52.622;9.230;2023-05-07T08:09:23;8.27;;;5.43;;
80297;SDS011;69599;52.622;9.230;2023-05-07T08:11:48;7.07;;;5.38;;
80297;SDS011;69599;52.622;9.230;2023-05-07T08:14:14;9.43;;;5.45;;
80297;SDS011;69599;52.622;9.230;2023-05-07T08:16:40;8.20;;;5.38;;
80297;SDS011;69599;52.622;9.230;2023-05-07T08:19:07;7.07;;;4.95;;
80297;SDS011;69599;52.622;9.230;2023-05-07T08:21:33;9.35;;;5.20;;
80297;SDS011;69599;52.622;9.230;2023-05-07T08:23:59;8.13;;;6.03;;
80297;SDS011;69599;52.622;9.230;2023-05-07T08:26:24;8.40;;;5.47;;
80297;SDS011;69599;52.622;9.230;2023-05-07T08:28:50;8.07;;;5.55;;
80297;SDS011;69599;52.622;9.230;2023-05-07T08:31:15;9.60;;;6.05;;
80297;SDS011;69599;52.622;9.230;2023-05-07T08:33:41;8.05;;;5.78;;
80297;SDS011;69599;52.622;9.230;2023-05-07T08:36:06;8.55;;;6.00;;
80297;SDS011;69599;52.622;9.230;2023-05-07T08:38:32;8.98;;;6.03;;
80297;SDS011;69599;52.622;9.230;2023-05-07T08:40:57;7.38;;;5.40;;
80297;SDS011;69599;52.622;9.230;2023-05-07T08:43:23;10.80;;;6.63;;
80297;SDS011;69599;52.622;9.230;2023-05-07T08:45:53;7.30;;;5.78;;
80297;SDS011;69599;52.622;9.230;2023-05-07T08:48:21;9.13;;;6.72;;
80297;SDS011;69599;52.622;9.230;2023-05-07T08:50:47;8.18;;;6.25;;
80297;SDS011;69599;52.622;9.230;2023-05-07T08:53:13;10.18;;;7.85;;
80297;SDS011;69599;52.622;9.230;2023-05-07T08:55:38;9.07;;;6.80;;
80297;SDS011;69599;52.622;9.230;2023-05-07T08:58:04;9.77;;;6.35;;
80297;SDS011;69599;52.622;9.230;2023-05-07T09:00:30;8.98;;;6.75;;
80297;SDS011;69599;52.622;9.230;2023-05-07T09:02:55;8.52;;;6.60;;
80297;SDS011;69599;52.622;9.230;2023-05-07T09:05:21;12.05;;;7.82;;
80297;SDS011;69599;52.622;9.230;2023-05-07T09:07:46;14.82;;;7.60;;
80297;SDS011;69599;52.622;9.230;2023-05-07T09:10:12;9.48;;;6.93;;
80297;SDS011;69599;52.622;9.230;2023-05-07T09:12:39;10.25;;;7.43;;
80297;SDS011;69599;52.622;9.230;2023-05-07T09:15:06;9.38;;;6.70;;
80297;SDS011;69599;52.622;9.230;2023-05-07T09:17:32;7.47;;;6.22;;
80297;SDS011;69599;52.622;9.230;2023-05-07T09:20:06;9.68;;;7.32;;
80297;SDS011;69599;52.622;9.230;2023-05-07T09:22:32;9.68;;;7.45;;
80297;SDS011;69599;52.622;9.230;2023-05-07T09:24:58;10.45;;;7.63;;
80297;SDS011;69599;52.622;9.230;2023-05-07T09:27:24;9.40;;;7.35;;
80297;SDS011;69599;52.622;9.230;2023-05-07T09:29:50;11.98;;;8.02;;
80297;SDS011;69599;52.622;9.230;2023-05-07T09:32:16;9.98;;;6.82;;
80297;SDS011;69599;52.622;9.230;2023-05-07T09:34:41;9.93;;;7.50;;
80297;SDS011;69599;52.622;9.230;2023-05-07T09:37:07;8.65;;;7.40;;
80297;SDS011;69599;52.622;9.230;2023-05-07T09:40:05;9.63;;;7.32;;
80297;SDS011;69599;52.622;9.230;2023-05-07T09:42:24;8.95;;;6.85;;
80297;SDS011;69599;52.622;9.230;2023-05-07T09:44:51;10.07;;;7.43;;
80297;SDS011;69599;52.622;9.230;2023-05-07T09:47:19;8.73;;;6.50;;
80297;SDS011;69599;52.622;9.230;2023-05-07T09:49:49;9.35;;;6.50;;
80297;SDS011;69599;52.622;9.230;2023-05-07T09:52:15;8.02;;;7.20;;
80297;SDS011;69599;52.622;9.230;2023-05-07T09:54:41;9.40;;;6.53;;
80297;SDS011;69599;52.622;9.230;2023-05-07T09:57:09;9.35;;;6.07;;
80297;SDS011;69599;52.622;9.230;2023-05-07T09:59:36;9.15;;;6.57;;
80297;SDS011;69599;52.622;9.230;2023-05-07T10:02:03;8.50;;;5.97;;
80297;SDS011;69599;52.622;9.230;2023-05-07T10:04:29;8.32;;;5.93;;
80297;SDS011;69599;52.622;9.230;2023-05-07T10:06:56;9.15;;;6.55;;
80297;SDS011;69599;52.622;9.230;2023-05-07T10:09:21;9.07;;;6.60;;
80297;SDS011;69599;52.622;9.230;2023-05-07T10:11:48;8.60;;;6.50;;
80297;SDS011;69599;52.622;9.230;2023-05-07T10:14:14;10.32;;;6.93;;
80297;SDS011;69599;52.622;9.230;2023-05-07T10:16:40;8.73;;;6.18;;
80297;SDS011;69599;52.622;9.230;2023-05-07T10:19:06;7.90;;;6.72;;
80297;SDS011;69599;52.622;9.230;2023-05-07T10:21:37;7.88;;;5.65;;
80297;SDS011;69599;52.622;9.230;2023-05-07T10:24:08;8.88;;;6.05;;
80297;SDS011;69599;52.622;9.230;2023-05-07T10:26:39;9.98;;;6.80;;
80297;SDS011;69599;52.622;9.230;2023-05-07T10:29:10;8.32;;;6.00;;
80297;SDS011;69599;52.622;9.230;2023-05-07T10:31:46;9.32;;;7.05;;
80297;SDS011;69599;52.622;9.230;2023-05-07T10:34:14;8.85;;;6.60;;
80297;SDS011;69599;52.622;9.230;2023-05-07T10:39:07;9.90;;;7.03;;
80297;SDS011;69599;52.622;9.230;2023-05-07T10:41:33;7.38;;;5.93;;
80297;SDS011;69599;52.622;9.230;2023-05-07T10:43:58;8.23;;;5.82;;
80297;SDS011;69599;52.622;9.230;2023-05-07T10:46:26;9.15;;;6.53;;
80297;SDS011;69599;52.622;9.230;2023-05-07T10:51:27;7.28;;;5.80;;
80297;SDS011;69599;52.622;9.230;2023-05-07T10:56:37;9.48;;;6.15;;
80297;SDS011;69599;52.622;9.230;2023-05-07T10:59:48;7.35;;;5.68;;
80297;SDS011;69599;52.622;9.230;2023-05-07T11:01:59;8.00;;;6.32;;
80297;SDS011;69599;52.622;9.230;2023-05-07T11:04:28;7.72;;;6.30;;
80297;SDS011;69599;52.622;9.230;2023-05-07T11:15:05;8.18;;;5.78;;
80297;SDS011;69599;52.622;9.230;2023-05-07T11:17:58;9.15;;;6.18;;
80297;SDS011;69599;52.622;9.230;2023-05-07T11:26:09;8.32;;;6.78;;
80297;SDS011;69599;52.622;9.230;2023-05-07T11:28:36;9.65;;;6.85;;
80297;SDS011;69599;52.622;9.230;2023-05-07T11:31:03;9.95;;;6.68;;
80297;SDS011;69599;52.622;9.230;2023-05-07T11:33:32;10.00;;;7.05;;
80297;SDS011;69599;52.622;9.230;2023-05-07T11:35:59;10.23;;;7.30;;
80297;SDS011;69599;52.622;9.230;2023-05-07T11:38:25;10.00;;;7.75;;
80297;SDS011;69599;52.622;9.230;2023-05-07T11:40:51;9.93;;;8.02;;
80297;SDS011;69599;52.622;9.230;2023-05-07T11:43:30;9.98;;;8.50;;
80297;SDS011;69599;52.622;9.230;2023-05-07T11:45:58;9.48;;;7.90;;
80297;SDS011;69599;52.622;9.230;2023-05-07T11:48:30;9.45;;;8.02;;
80297;SDS011;69599;52.622;9.230;2023-05-07T11:51:03;9.98;;;8.20;;
80297;SDS011;69599;52.622;9.230;2023-05-07T11:53:36;9.43;;;7.47;;
80297;SDS011;69599;52.622;9.230;2023-05-07T11:58:31;8.02;;;6.72;;
80297;SDS011;69599;52.622;9.230;2023-05-07T12:00:56;8.32;;;6.72;;
80297;SDS011;69599;52.622;9.230;2023-05-07T12:03:22;8.60;;;7.45;;
80297;SDS011;69599;52.622;9.230;2023-05-07T12:05:47;9.40;;;7.35;;
80297;SDS011;69599;52.622;9.230;2023-05-07T12:08:14;8.30;;;6.70;;
80297;SDS011;69599;52.622;9.230;2023-05-07T12:10:41;9.40;;;6.63;;
80297;SDS011;69599;52.622;9.230;2023-05-07T12:15:42;8.93;;;6.90;;
80297;SDS011;69599;52.622;9.230;2023-05-07T12:18:07;9.00;;;7.35;;
80297;SDS011;69599;52.622;9.230;2023-05-07T12:20:34;9.60;;;7.60;;
80297;SDS011;69599;52.622;9.230;2023-05-07T12:23:00;9.68;;;6.82;;
80297;SDS011;69599;52.622;9.230;2023-05-07T12:25:26;12.50;;;7.40;;
80297;SDS011;69599;52.622;9.230;2023-05-07T12:27:52;7.72;;;6.03;;
80297;SDS011;69599;52.622;9.230;2023-05-07T12:30:18;7.53;;;6.15;;
80297;SDS011;69599;52.622;9.230;2023-05-07T12:32:44;7.97;;;6.75;;
80297;SDS011;69599;52.622;9.230;2023-05-07T12:35:10;7.88;;;6.30;;
80297;SDS011;69599;52.622;9.230;2023-05-07T12:37:35;8.02;;;5.95;;
80297;SDS011;69599;52.622;9.230;2023-05-07T12:40:08;7.72;;;6.30;;
80297;SDS011;69599;52.622;9.230;2023-05-07T12:42:37;7.45;;;5.38;;
80297;SDS011;69599;52.622;9.230;2023-05-07T12:45:15;7.32;;;6.07;;
80297;SDS011;69599;52.622;9.230;2023-05-07T12:47:44;6.53;;;5.63;;
80297;SDS011;69599;52.622;9.230;2023-05-07T12:50:10;7.32;;;5.35;;
80297;SDS011;69599;52.622;9.230;2023-05-07T12:52:36;7.80;;;5.75;;
80297;SDS011;69599;52.622;9.230;2023-05-07T12:55:05;6.03;;;5.30;;
80297;SDS011;69599;52.622;9.230;2023-05-07T12:57:37;7.47;;;5.85;;
80297;SDS011;69599;52.622;9.230;2023-05-07T13:00:11;6.82;;;5.22;;
80297;SDS011;69599;52.622;9.230;2023-05-07T13:02:37;6.63;;;5.15;;
80297;SDS011;69599;52.622;9.230;2023-05-07T13:05:04;7.03;;;5.10;;
80297;SDS011;69599;52.622;9.230;2023-05-07T13:07:30;6.88;;;5.03;;
80297;SDS011;69599;52.622;9.230;2023-05-07T13:09:55;7.03;;;6.15;;
80297;SDS011;69599;52.622;9.230;2023-05-07T13:12:20;6.95;;;5.25;;
80297;SDS011;69599;52.622;9.230;2023-05-07T13:14:46;6.55;;;5.30;;
80297;SDS011;69599;52.622;9.230;2023-05-07T13:17:11;8.77;;;6.60;;
80297;SDS011;69599;52.622;9.230;2023-05-07T13:19:37;6.53;;;5.22;;
80297;SDS011;69599;52.622;9.230;2023-05-07T13:22:03;5.65;;;5.05;;
80297;SDS011;69599;52.622;9.230;2023-05-07T13:24:28;8.07;;;5.57;;
80297;SDS011;69599;52.622;9.230;2023-05-07T13:26:54;6.68;;;5.38;;
80297;SDS011;69599;52.622;9.230;2023-05-07T13:29:19;7.43;;;5.07;;
80297;SDS011;69599;52.622;9.230;2023-05-07T13:31:47;6.20;;;5.00;;
80297;SDS011;69599;52.622;9.230;2023-05-07T13:34:12;6.00;;;5.05;;
80297;SDS011;69599;52.622;9.230;2023-05-07T13:36:38;5.88;;;4.85;;
80297;SDS011;69599;52.622;9.230;2023-05-07T13:39:04;6.35;;;4.80;;
80297;SDS011;69599;52.622;9.230;2023-05-07T13:41:31;5.70;;;5.10;;
80297;SDS011;69599;52.622;9.230;2023-05-07T13:43:56;9.05;;;4.93;;
80297;SDS011;69599;52.622;9.230;2023-05-07T13:46:21;5.45;;;4.47;;
80297;SDS011;69599;52.622;9.230;2023-05-07T13:48:47;5.78;;;4.28;;
80297;SDS011;69599;52.622;9.230;2023-05-07T13:51:12;5.85;;;4.10;;
80297;SDS011;69599;52.622;9.230;2023-05-07T13:53:38;5.00;;;4.43;;
80297;SDS011;69599;52.622;9.230;2023-05-07T13:56:04;7.53;;;4.72;;
80297;SDS011;69599;52.622;9.230;2023-05-07T13:58:30;5.38;;;4.63;;
80297;SDS011;69599;52.622;9.230;2023-05-07T14:00:55;5.93;;;4.45;;
80297;SDS011;69599;52.622;9.230;2023-05-07T14:03:21;6.97;;;4.20;;
80297;SDS011;69599;52.622;9.230;2023-05-07T14:05:46;5.57;;;3.72;;
80297;SDS011;69599;52.622;9.230;2023-05-07T14:08:12;5.13;;;3.53;;
80297;SDS011;69599;52.622;9.230;2023-05-07T14:10:39;6.00;;;3.90;;
80297;SDS011;69599;52.622;9.230;2023-05-07T14:13:04;4.75;;;4.05;;
80297;SDS011;69599;52.622;9.230;2023-05-07T14:15:30;4.45;;;3.22;;
80297;SDS011;69599;52.622;9.230;2023-05-07T14:17:57;5.47;;;3.85;;
80297;SDS011;69599;52.622;9.230;2023-05-07T14:20:24;4.47;;;3.92;;
80297;SDS011;69599;52.622;9.230;2023-05-07T14:22:50;4.72;;;3.83;;
80297;SDS011;69599;52.622;9.230;2023-05-07T14:25:15;5.90;;;3.90;;
80297;SDS011;69599;52.622;9.230;2023-05-07T14:27:41;5.82;;;4.82;;
80297;SDS011;69599;52.622;9.230;2023-05-07T14:30:06;4.50;;;3.80;;
80297;SDS011;69599;52.622;9.230;2023-05-07T14:32:32;6.57;;;4.53;;
80297;SDS011;69599;52.622;9.230;2023-05-07T14:34:58;4.97;;;4.43;;
80297;SDS011;69599;52.622;9.230;2023-05-07T14:37:24;4.95;;;4.00;;
80297;SDS011;69599;52.622;9.230;2023-05-07T14:39:50;6.35;;;4.47;;
80297;SDS011;69599;52.622;9.230;2023-05-07T14:42:15;6.05;;;4.80;;
80297;SDS011;69599;52.622;9.230;2023-05-07T14:44:40;7.57;;;4.68;;
80297;SDS011;69599;52.622;9.230;2023-05-07T14:47:06;6.32;;;4.82;;
80297;SDS011;69599;52.622;9.230;2023-05-07T14:49:32;6.47;;;5.05;;
80297;SDS011;69599;52.622;9.230;2023-05-07T14:51:58;6.05;;;4.93;;
80297;SDS011;69599;52.622;9.230;2023-05-07T14:54:25;7.45;;;5.13;;
80297;SDS011;69599;52.622;9.230;2023-05-07T14:56:50;6.07;;;4.82;;